Time;durP1;ratioP1;P1;durP2;ratioP2;P2;SDS_P1;SDS_P2;PMS_P1;PMS_P2;Temp;Humidity;BMP_temperature;BMP_pressure;BME280_temperature;BME280_humidity;BME280_pressure;Samples;Min_cycle;Max_cycle;Signal;HPM_P1;HPM_P2
2022/04/12 00:00:30;;;;;;;;;;;;;;;;;;5115503;28;19988;-45
2022/04/12 00:02:57;;;;;;;;;;;;;;;;;;5115743;27;19908;-58
2022/04/12 00:05:23;;;;;;;;;;;;;;;;;;5096751;28;20294;-49
2022/04/12 00:07:50;;;;;;;;;;;;;;;;;;5095105;28;19908;-48
2022/04/12 00:10:16;;;;;;;;;;;;;;;;;;5094918;28;19961;-49
2022/04/12 00:12:43;;;;;;;;;;;;;;;;;;5093949;28;19912;-51
2022/04/12 00:15:09;;;;;;;;;;;;;;;;;;5094803;28;19958;-43
2022/04/12 00:20:20;;;;;;;;;;;;;;;;;;5094916;28;19919;-50
2022/04/12 00:22:47;;;;;;;;;;;;;;;;;;5094828;28;19908;-51
2022/04/12 00:25:13;;;;;;;;;;;;;;;;;;5094464;28;19932;-49
2022/04/12 00:27:40;;;;;;;;;;;;;;;;;;5094760;28;20254;-49
2022/04/12 00:30:08;;;;;;;;;;;;;;;;;;5102762;28;19912;-49
2022/04/12 00:32:34;;;;;;;;;;;;;;;;;;5114831;28;19912;-51
2022/04/12 00:35:01;;;;;;;;;;;;;;;;;;5114122;28;20392;-44
2022/04/12 00:37:27;;;;;;;;;;;;;;;;;;5105299;28;20320;-52
2022/04/12 00:39:53;;;;;;;;;;;;;;;;;;5094611;28;19908;-42
2022/04/12 00:42:20;;;;;;;;;;;;;;;;;;5094412;28;19912;-50
2022/04/12 00:44:46;;;;;;;;;;;;;;;;;;5093985;28;19908;-53
2022/04/12 00:47:13;;;;;;;;;;;;;;;;;;5094146;28;19943;-52
2022/04/12 00:49:40;;;;;;;;;;;;;;;;;;5093860;28;19909;-50
2022/04/12 00:52:06;;;;;;;;;;;;;;;;;;5094000;28;20339;-52
2022/04/12 00:54:33;;;;;;;;;;;;;;;;;;5092852;28;20350;-47
2022/04/12 00:56:59;;;;;;;;;;;;;;;;;;5094321;28;19916;-54
2022/04/12 00:59:26;;;;;;;;;;;;;;;;;;5094283;28;19912;-51
2022/04/12 01:01:52;;;;;;;;;;;;;;;;;;5092663;28;19908;-49
2022/04/12 01:04:19;;;;;;;;;;;;;;;;;;5093736;28;19966;-50
2022/04/12 01:06:46;;;;;;;;;;;;;;;;;;5093350;28;19908;-51
2022/04/12 01:09:12;;;;;;;;;;;;;;;;;;5092325;28;19995;-56
2022/04/12 01:11:40;;;;;;;;;;;;;;;;;;5102715;28;19915;-53
2022/04/12 01:14:06;;;;;;;;;;;;;;;;;;5114149;28;19951;-48
2022/04/12 01:16:36;;;;;;;;;;;;;;;;;;5113848;28;20254;-45
2022/04/12 01:19:02;;;;;;;;;;;;;;;;;;5113291;28;19908;-51
2022/04/12 01:21:29;;;;;;;;;;;;;;;;;;5113512;28;19949;-44
2022/04/12 01:23:55;;;;;;;;;;;;;;;;;;5114218;28;20004;-58
2022/04/12 01:26:22;;;;;;;;;;;;;;;;;;5113981;28;19908;-45
2022/04/12 01:28:48;;;;;;;;;;;;;;;;;;5114128;28;19908;-52
2022/04/12 01:31:15;;;;;;;;;;;;;;;;;;5114375;28;19908;-57
2022/04/12 01:33:41;;;;;;;;;;;;;;;;;;5113550;28;19908;-49
2022/04/12 01:36:08;;;;;;;;;;;;;;;;;;5114037;28;19959;-54
2022/04/12 01:38:34;;;;;;;;;;;;;;;;;;5111463;28;19912;-56
2022/04/12 01:41:02;;;;;;;;;;;;;;;;;;5093290;28;19999;-48
2022/04/12 01:43:28;;;;;;;;;;;;;;;;;;5092778;28;19970;-48
2022/04/12 01:45:55;;;;;;;;;;;;;;;;;;5091576;28;19930;-47
2022/04/12 01:48:21;;;;;;;;;;;;;;;;;;5092711;28;19995;-51
2022/04/12 01:50:48;;;;;;;;;;;;;;;;;;5093016;28;19962;-50
2022/04/12 01:53:15;;;;;;;;;;;;;;;;;;5093334;28;19908;-55
2022/04/12 01:55:41;;;;;;;;;;;;;;;;;;5093116;28;19916;-50
2022/04/12 01:58:08;;;;;;;;;;;;;;;;;;5092982;28;20316;-53
2022/04/12 02:00:37;;;;;;;;;;;;;;;;;;5093298;28;19941;-53
2022/04/12 02:03:04;;;;;;;;;;;;;;;;;;5093441;28;20281;-47
2022/04/12 02:05:30;;;;;;;;;;;;;;;;;;5092706;28;19947;-57
2022/04/12 02:07:56;;;;;;;;;;;;;;;;;;5092834;28;19918;-46
2022/04/12 02:10:23;;;;;;;;;;;;;;;;;;5092864;28;19949;-45
2022/04/12 02:12:49;;;;;;;;;;;;;;;;;;5092920;28;19915;-49
2022/04/12 02:15:16;;;;;;;;;;;;;;;;;;5090836;28;19920;-47
2022/04/12 02:17:42;;;;;;;;;;;;;;;;;;5092439;28;20377;-51
2022/04/12 02:20:09;;;;;;;;;;;;;;;;;;5093028;28;20278;-50
2022/04/12 02:22:35;;;;;;;;;;;;;;;;;;5092806;28;19914;-53
2022/04/12 02:25:02;;;;;;;;;;;;;;;;;;5092866;28;19909;-56
2022/04/12 02:27:28;;;;;;;;;;;;;;;;;;5092975;28;19914;-56
2022/04/12 02:29:55;;;;;;;;;;;;;;;;;;5092318;28;19909;-49
2022/04/12 02:32:21;;;;;;;;;;;;;;;;;;5092809;28;20006;-52
2022/04/12 02:34:47;;;;;;;;;;;;;;;;;;5092458;28;19908;-54
2022/04/12 02:37:14;;;;;;;;;;;;;;;;;;5092401;28;20350;-58
2022/04/12 02:39:40;;;;;;;;;;;;;;;;;;5092484;28;20366;-53
2022/04/12 02:42:07;;;;;;;;;;;;;;;;;;5092512;28;20307;-56
2022/04/12 02:44:34;;;;;;;;;;;;;;;;;;5092681;28;19931;-52
2022/04/12 02:47:00;;;;;;;;;;;;;;;;;;5092713;28;19908;-52
2022/04/12 02:49:27;;;;;;;;;;;;;;;;;;5092282;28;19908;-54
2022/04/12 02:51:53;;;;;;;;;;;;;;;;;;5092504;28;19911;-51
2022/04/12 02:54:20;;;;;;;;;;;;;;;;;;5092421;28;20375;-50
2022/04/12 02:56:46;;;;;;;;;;;;;;;;;;5093724;28;19916;-51
2022/04/12 02:59:12;;;;;;;;;;;;;;;;;;5096446;28;19908;-49
2022/04/12 03:01:39;;;;;;;;;;;;;;;;;;5096349;28;20351;-51
2022/04/12 03:04:05;;;;;;;;;;;;;;;;;;5095659;28;19951;-53
2022/04/12 03:06:32;;;;;;;;;;;;;;;;;;5096280;28;19912;-51
2022/04/12 03:08:58;;;;;;;;;;;;;;;;;;5096830;28;19952;-55
2022/04/12 03:11:25;;;;;;;;;;;;;;;;;;5096281;28;19909;-45
2022/04/12 03:13:52;;;;;;;;;;;;;;;;;;5095303;28;20232;-46
2022/04/12 03:16:18;;;;;;;;;;;;;;;;;;5095980;28;19916;-52
2022/04/12 03:18:45;;;;;;;;;;;;;;;;;;5104203;28;19908;-53
2022/04/12 03:21:11;;;;;;;;;;;;;;;;;;5095403;28;19934;-49
2022/04/12 03:23:38;;;;;;;;;;;;;;;;;;5096402;28;19904;-45
2022/04/12 03:26:04;;;;;;;;;;;;;;;;;;5096740;28;20359;-52
2022/04/12 03:28:31;;;;;;;;;;;;;;;;;;5096155;28;19995;-55
2022/04/12 03:30:57;;;;;;;;;;;;;;;;;;5095780;28;19977;-52
2022/04/12 03:33:24;;;;;;;;;;;;;;;;;;5095931;28;19954;-50
2022/04/12 03:35:50;;;;;;;;;;;;;;;;;;5095408;28;19965;-55
2022/04/12 03:38:17;;;;;;;;;;;;;;;;;;5095507;28;19995;-52
2022/04/12 03:40:46;;;;;;;;;;;;;;;;;;5095219;28;20331;-53
2022/04/12 03:43:12;;;;;;;;;;;;;;;;;;5095128;28;19915;-52
2022/04/12 03:45:39;;;;;;;;;;;;;;;;;;5094117;28;19916;-43
2022/04/12 03:48:08;;;;;;;;;;;;;;;;;;5095036;28;20394;-47
2022/04/12 03:50:35;;;;;;;;;;;;;;;;;;5095008;28;20312;-48
2022/04/12 03:53:01;;;;;;;;;;;;;;;;;;5095153;28;19935;-44
2022/04/12 03:55:31;;;;;;;;;;;;;;;;;;5095266;28;19970;-46
2022/04/12 03:57:57;;;;;;;;;;;;;;;;;;5095398;28;20297;-52
2022/04/12 04:00:24;;;;;;;;;;;;;;;;;;5094526;28;19908;-58
2022/04/12 04:02:50;;;;;;;;;;;;;;;;;;5095411;28;19911;-45
2022/04/12 04:05:17;;;;;;;;;;;;;;;;;;5093832;28;19920;-48
2022/04/12 04:07:47;;;;;;;;;;;;;;;;;;5094024;28;20150;-49
2022/04/12 04:10:13;;;;;;;;;;;;;;;;;;5094156;28;19908;-49
2022/04/12 04:12:40;;;;;;;;;;;;;;;;;;5094556;28;19904;-53
2022/04/12 04:15:11;;;;;;;;;;;;;;;;;;5094029;28;19995;-45
2022/04/12 04:17:41;;;;;;;;;;;;;;;;;;5115354;28;19915;-56
2022/04/12 04:20:07;;;;;;;;;;;;;;;;;;5115343;28;19912;-56
2022/04/12 04:22:34;;;;;;;;;;;;;;;;;;5115368;28;19908;-48
2022/04/12 04:25:00;;;;;;;;;;;;;;;;;;5112905;28;19907;-51
2022/04/12 04:27:30;;;;;;;;;;;;;;;;;;5114348;28;20286;-47
2022/04/12 04:29:57;;;;;;;;;;;;;;;;;;5114619;28;19907;-44
2022/04/12 04:32:23;;;;;;;;;;;;;;;;;;5115155;28;19915;-49
2022/04/12 04:34:50;;;;;;;;;;;;;;;;;;5114668;28;19961;-42
2022/04/12 04:37:16;;;;;;;;;;;;;;;;;;5114702;28;19923;-45
2022/04/12 04:39:42;;;;;;;;;;;;;;;;;;5114328;28;19908;-53
2022/04/12 04:42:09;;;;;;;;;;;;;;;;;;5114519;28;19907;-50
2022/04/12 04:44:35;;;;;;;;;;;;;;;;;;5114489;28;19931;-48
2022/04/12 04:47:02;;;;;;;;;;;;;;;;;;5114621;28;19908;-45
2022/04/12 04:49:28;;;;;;;;;;;;;;;;;;5114914;28;19983;-49
2022/04/12 04:51:55;;;;;;;;;;;;;;;;;;5114499;28;20285;-46
2022/04/12 04:54:21;;;;;;;;;;;;;;;;;;5114338;28;19912;-51
2022/04/12 04:56:48;;;;;;;;;;;;;;;;;;5114159;28;20030;-49
2022/04/12 04:59:14;;;;;;;;;;;;;;;;;;5114407;28;20372;-54
2022/04/12 05:01:41;;;;;;;;;;;;;;;;;;5114111;28;20242;-54
2022/04/12 05:04:07;;;;;;;;;;;;;;;;;;5114309;28;19994;-49
2022/04/12 05:06:33;;;;;;;;;;;;;;;;;;5114649;28;19904;-51
2022/04/12 05:09:00;;;;;;;;;;;;;;;;;;5114454;28;19907;-51
2022/04/12 05:11:26;;;;;;;;;;;;;;;;;;5114670;28;19912;-55
2022/04/12 05:13:55;;;;;;;;;;;;;;;;;;5114717;28;20411;-53
2022/04/12 05:16:21;;;;;;;;;;;;;;;;;;5113725;28;19920;-51
2022/04/12 05:18:48;;;;;;;;;;;;;;;;;;5113969;28;19914;-57
2022/04/12 05:21:14;;;;;;;;;;;;;;;;;;5114238;28;19954;-55
2022/04/12 05:23:41;;;;;;;;;;;;;;;;;;5113863;28;19995;-52
2022/04/12 05:26:07;;;;;;;;;;;;;;;;;;5114090;28;19908;-45
2022/04/12 05:28:34;;;;;;;;;;;;;;;;;;5114215;28;19968;-55
2022/04/12 05:31:00;;;;;;;;;;;;;;;;;;5113789;28;19908;-55
2022/04/12 05:33:27;;;;;;;;;;;;;;;;;;5113650;28;19908;-56
2022/04/12 05:35:53;;;;;;;;;;;;;;;;;;5113360;28;19912;-49
2022/04/12 05:38:20;;;;;;;;;;;;;;;;;;5112864;28;19970;-51
2022/04/12 05:40:46;;;;;;;;;;;;;;;;;;5113836;28;19912;-50
2022/04/12 05:43:13;;;;;;;;;;;;;;;;;;5113002;28;19915;-52
2022/04/12 05:45:39;;;;;;;;;;;;;;;;;;5113474;28;20368;-49
2022/04/12 05:48:06;;;;;;;;;;;;;;;;;;5113578;28;19907;-48
2022/04/12 05:50:32;;;;;;;;;;;;;;;;;;5113396;28;19911;-53
2022/04/12 05:52:59;;;;;;;;;;;;;;;;;;5113146;28;19943;-55
2022/04/12 05:55:26;;;;;;;;;;;;;;;;;;5113332;28;19911;-56
2022/04/12 05:57:53;;;;;;;;;;;;;;;;;;5113644;28;19972;-48
2022/04/12 06:00:19;;;;;;;;;;;;;;;;;;5113054;28;19994;-52
2022/04/12 06:02:46;;;;;;;;;;;;;;;;;;5113289;28;19908;-57
2022/04/12 06:05:13;;;;;;;;;;;;;;;;;;5105567;28;20324;-51
2022/04/12 06:07:40;;;;;;;;;;;;;;;;;;5092899;28;19908;-52
2022/04/12 06:10:06;;;;;;;;;;;;;;;;;;5092647;28;20277;-56
2022/04/12 06:12:32;;;;;;;;;;;;;;;;;;5092875;28;20255;-54
2022/04/12 06:14:59;;;;;;;;;;;;;;;;;;5092461;28;19920;-52
2022/04/12 06:17:25;;;;;;;;;;;;;;;;;;5092505;28;19916;-55
2022/04/12 06:19:52;;;;;;;;;;;;;;;;;;5092721;28;19919;-55
2022/04/12 06:22:18;;;;;;;;;;;;;;;;;;5092018;28;20390;-52
2022/04/12 06:24:45;;;;;;;;;;;;;;;;;;5092683;28;20316;-52
2022/04/12 06:27:11;;;;;;;;;;;;;;;;;;5092529;28;19912;-52
2022/04/12 06:29:38;;;;;;;;;;;;;;;;;;5092606;28;20333;-54
2022/04/12 06:32:04;;;;;;;;;;;;;;;;;;5092103;28;19931;-45
2022/04/12 06:34:31;;;;;;;;;;;;;;;;;;5092482;28;19912;-51
2022/04/12 06:36:57;;;;;;;;;;;;;;;;;;5093092;28;19951;-52
2022/04/12 06:39:24;;;;;;;;;;;;;;;;;;5092406;28;20007;-50
2022/04/12 06:41:50;;;;;;;;;;;;;;;;;;5092621;28;20353;-51
2022/04/12 06:44:17;;;;;;;;;;;;;;;;;;5092945;28;20350;-56
2022/04/12 06:46:43;;;;;;;;;;;;;;;;;;5092607;28;19909;-52
2022/04/12 06:49:10;;;;;;;;;;;;;;;;;;5092441;28;20350;-56
2022/04/12 06:51:36;;;;;;;;;;;;;;;;;;5092604;28;19916;-51
2022/04/12 06:54:03;;;;;;;;;;;;;;;;;;5092806;28;19908;-51
2022/04/12 06:56:29;;;;;;;;;;;;;;;;;;5091349;28;20018;-52
2022/04/12 06:58:56;;;;;;;;;;;;;;;;;;5092305;28;19942;-54
2022/04/12 07:01:22;;;;;;;;;;;;;;;;;;5092780;28;19908;-52
2022/04/12 07:03:49;;;;;;;;;;;;;;;;;;5092148;28;20001;-51
2022/04/12 07:06:15;;;;;;;;;;;;;;;;;;5092324;28;19991;-56
2022/04/12 07:08:41;;;;;;;;;;;;;;;;;;5092341;28;19912;-55
2022/04/12 07:11:08;;;;;;;;;;;;;;;;;;5091919;28;19912;-54
2022/04/12 07:13:34;;;;;;;;;;;;;;;;;;5092035;28;19908;-51
2022/04/12 07:16:02;;;;;;;;;;;;;;;;;;5092275;28;20331;-54
2022/04/12 07:18:29;;;;;;;;;;;;;;;;;;5091966;28;19912;-52
2022/04/12 07:20:55;;;;;;;;;;;;;;;;;;5091967;28;19908;-53
2022/04/12 07:23:21;;;;;;;;;;;;;;;;;;5092189;28;19912;-52
2022/04/12 07:25:49;;;;;;;;;;;;;;;;;;5092272;28;20299;-53
2022/04/12 07:28:15;;;;;;;;;;;;;;;;;;5091923;28;19940;-55
2022/04/12 07:30:42;;;;;;;;;;;;;;;;;;5091987;28;19924;-53
2022/04/12 07:33:08;;;;;;;;;;;;;;;;;;5090847;28;20053;-56
2022/04/12 07:35:34;;;;;;;;;;;;;;;;;;5091973;28;19919;-52
2022/04/12 07:38:01;;;;;;;;;;;;;;;;;;5091333;28;20037;-51
2022/04/12 07:40:27;;;;;;;;;;;;;;;;;;5091590;28;19919;-51
2022/04/12 07:42:54;;;;;;;;;;;;;;;;;;5091915;28;19977;-49
2022/04/12 07:45:20;;;;;;;;;;;;;;;;;;5094747;28;20003;-50
2022/04/12 07:47:47;;;;;;;;;;;;;;;;;;5095423;28;19920;-56
2022/04/12 07:50:13;;;;;;;;;;;;;;;;;;5095231;28;19919;-53
2022/04/12 07:52:41;;;;;;;;;;;;;;;;;;5095283;28;19909;-47
2022/04/12 07:55:07;;;;;;;;;;;;;;;;;;5095413;28;19909;-50
2022/04/12 07:57:34;;;;;;;;;;;;;;;;;;5095099;28;19923;-51
2022/04/12 08:00:00;;;;;;;;;;;;;;;;;;5095285;28;20273;-49
2022/04/12 08:02:26;;;;;;;;;;;;;;;;;;5095069;28;19908;-55
2022/04/12 08:04:55;;;;;;;;;;;;;;;;;;5095036;28;19920;-54
2022/04/12 08:07:21;;;;;;;;;;;;;;;;;;5094188;28;20235;-52
2022/04/12 08:09:47;;;;;;;;;;;;;;;;;;5095052;28;19908;-52
2022/04/12 08:12:14;;;;;;;;;;;;;;;;;;5095077;28;19995;-55
2022/04/12 08:14:40;;;;;;;;;;;;;;;;;;5094795;28;20007;-49
2022/04/12 08:17:07;;;;;;;;;;;;;;;;;;5095132;28;19923;-54
2022/04/12 08:19:33;;;;;;;;;;;;;;;;;;5094853;28;19915;-54
2022/04/12 08:22:01;;;;;;;;;;;;;;;;;;5095079;28;19951;-54
2022/04/12 08:24:28;;;;;;;;;;;;;;;;;;5094340;28;20290;-53
2022/04/12 08:26:55;;;;;;;;;;;;;;;;;;5094403;28;19976;-57
2022/04/12 08:29:21;;;;;;;;;;;;;;;;;;5093944;28;19912;-59
2022/04/12 08:31:48;;;;;;;;;;;;;;;;;;5094237;28;19940;-46
2022/04/12 08:34:14;;;;;;;;;;;;;;;;;;5093686;28;19908;-55
2022/04/12 08:36:41;;;;;;;;;;;;;;;;;;5094471;28;19924;-51
2022/04/12 08:39:07;;;;;;;;;;;;;;;;;;5094667;28;19908;-55
2022/04/12 08:41:34;;;;;;;;;;;;;;;;;;5094193;28;20366;-54
2022/04/12 08:44:00;;;;;;;;;;;;;;;;;;5094341;28;20260;-56
2022/04/12 08:46:27;;;;;;;;;;;;;;;;;;5094116;28;19931;-48
2022/04/12 08:48:54;;;;;;;;;;;;;;;;;;5094151;28;19963;-51
2022/04/12 08:51:21;;;;;;;;;;;;;;;;;;5094336;28;19919;-52
2022/04/12 08:53:48;;;;;;;;;;;;;;;;;;5094574;28;19916;-50
2022/04/12 08:56:14;;;;;;;;;;;;;;;;;;5093646;28;19916;-56
2022/04/12 08:58:41;;;;;;;;;;;;;;;;;;5094081;28;19908;-59
2022/04/12 09:01:07;;;;;;;;;;;;;;;;;;5094923;28;19908;-52
2022/04/12 09:03:34;;;;;;;;;;;;;;;;;;5098010;28;19908;-54
2022/04/12 09:06:00;;;;;;;;;;;;;;;;;;5114368;28;20388;-51
2022/04/12 09:08:27;;;;;;;;;;;;;;;;;;5114275;28;20003;-52
2022/04/12 09:10:53;;;;;;;;;;;;;;;;;;5114074;28;19919;-46
2022/04/12 09:13:20;;;;;;;;;;;;;;;;;;5114363;28;20000;-48
2022/04/12 09:15:46;;;;;;;;;;;;;;;;;;5114239;28;20379;-51
2022/04/12 09:18:13;;;;;;;;;;;;;;;;;;5113303;28;19919;-54
2022/04/12 09:20:39;;;;;;;;;;;;;;;;;;5114236;28;19968;-56
2022/04/12 09:23:15;;;;;;;;;;;;;;;;;;5112986;28;19915;-54
2022/04/12 09:25:43;;;;;;;;;;;;;;;;;;5114222;28;19949;-54
2022/04/12 09:28:11;;;;;;;;;;;;;;;;;;5114172;28;19908;-50
2022/04/12 09:30:40;;;;;;;;;;;;;;;;;;5114420;28;19935;-49
2022/04/12 09:36:09;;;;;;;;;;;;;;;;;;5100471;28;19931;-53
2022/04/12 09:38:36;;;;;;;;;;;;;;;;;;5112544;28;19908;-50
2022/04/12 09:41:03;;;;;;;;;;;;;;;;;;5113916;28;19994;-49
2022/04/12 09:43:38;;;;;;;;;;;;;;;;;;5113836;28;19907;-52
2022/04/12 09:46:05;;;;;;;;;;;;;;;;;;5114007;28;19908;-46
2022/04/12 09:48:31;;;;;;;;;;;;;;;;;;5113876;27;19912;-52
2022/04/12 09:50:58;;;;;;;;;;;;;;;;;;5113347;28;19963;-47
2022/04/12 09:53:27;;;;;;;;;;;;;;;;;;5114213;28;19923;-46
2022/04/12 09:55:54;;;;;;;;;;;;;;;;;;5114128;28;19912;-47
2022/04/12 09:58:23;;;;;;;;;;;;;;;;;;5113792;28;19998;-42
2022/04/12 10:00:49;;;;;;;;;;;;;;;;;;5114100;28;20362;-52
2022/04/12 10:03:16;;;;;;;;;;;;;;;;;;5113748;28;20267;-51
2022/04/12 10:05:42;;;;;;;;;;;;;;;;;;5113119;28;19926;-52
2022/04/12 10:08:12;;;;;;;;;;;;;;;;;;5112879;28;19908;-46
2022/04/12 10:10:38;;;;;;;;;;;;;;;;;;5113817;28;19908;-46
2022/04/12 10:13:05;;;;;;;;;;;;;;;;;;5113767;28;19916;-53
2022/04/12 10:15:31;;;;;;;;;;;;;;;;;;5113550;28;19920;-51
2022/04/12 10:17:58;;;;;;;;;;;;;;;;;;5113822;28;20358;-51
2022/04/12 10:20:24;;;;;;;;;;;;;;;;;;5113564;28;19950;-53
2022/04/12 10:22:51;;;;;;;;;;;;;;;;;;5113961;28;19912;-52
2022/04/12 10:25:17;;;;;;;;;;;;;;;;;;5114005;28;19915;-49
2022/04/12 10:27:44;;;;;;;;;;;;;;;;;;5113766;28;19957;-56
2022/04/12 10:30:10;;;;;;;;;;;;;;;;;;5113459;28;19908;-45
2022/04/12 10:32:36;;;;;;;;;;;;;;;;;;5113415;28;19999;-55
2022/04/12 10:35:03;;;;;;;;;;;;;;;;;;5101325;28;20266;-46
2022/04/12 10:37:29;;;;;;;;;;;;;;;;;;5093531;28;19916;-52
2022/04/12 10:39:56;;;;;;;;;;;;;;;;;;5093261;28;20293;-57
2022/04/12 10:42:33;;;;;;;;;;;;;;;;;;5092829;28;19908;-48
2022/04/12 10:44:59;;;;;;;;;;;;;;;;;;5093066;28;19931;-51
2022/04/12 10:47:27;;;;;;;;;;;;;;;;;;5093466;28;19954;-51
2022/04/12 10:49:54;;;;;;;;;;;;;;;;;;5092839;28;20240;-54
2022/04/12 10:52:20;;;;;;;;;;;;;;;;;;5093011;28;19933;-45
2022/04/12 10:54:47;;;;;;;;;;;;;;;;;;5093313;28;19947;-53
2022/04/12 10:57:13;;;;;;;;;;;;;;;;;;5100975;28;19965;-51
2022/04/12 10:59:40;;;;;;;;;;;;;;;;;;5113172;28;19915;-49
2022/04/12 11:02:06;;;;;;;;;;;;;;;;;;5113511;28;20363;-56
2022/04/12 11:04:33;;;;;;;;;;;;;;;;;;5113014;28;19915;-52
2022/04/12 11:06:59;;;;;;;;;;;;;;;;;;5113600;28;19998;-51
2022/04/12 11:09:27;;;;;;;;;;;;;;;;;;5113026;28;20430;-45
2022/04/12 11:11:53;;;;;;;;;;;;;;;;;;5112615;28;19986;-52
2022/04/12 11:14:19;;;;;;;;;;;;;;;;;;5112916;28;19912;-52
2022/04/12 11:16:46;;;;;;;;;;;;;;;;;;5113148;28;19916;-52
2022/04/12 11:19:12;;;;;;;;;;;;;;;;;;5115911;28;20002;-53
2022/04/12 11:21:39;;;;;;;;;;;;;;;;;;5117294;28;19908;-49
2022/04/12 11:24:05;;;;;;;;;;;;;;;;;;5116914;28;19998;-50
2022/04/12 11:26:32;;;;;;;;;;;;;;;;;;5116773;28;19919;-56
2022/04/12 11:28:58;;;;;;;;;;;;;;;;;;5117051;28;19914;-46
2022/04/12 11:31:25;;;;;;;;;;;;;;;;;;5116821;28;19961;-50
2022/04/12 11:33:51;;;;;;;;;;;;;;;;;;5116951;28;19972;-49
2022/04/12 11:36:17;;;;;;;;;;;;;;;;;;5116226;28;19916;-49
2022/04/12 11:38:44;;;;;;;;;;;;;;;;;;5116710;28;19943;-55
2022/04/12 11:41:10;;;;;;;;;;;;;;;;;;5116511;28;19939;-55
2022/04/12 11:43:37;;;;;;;;;;;;;;;;;;5116816;28;19951;-52
2022/04/12 11:46:03;;;;;;;;;;;;;;;;;;5116630;28;19908;-52
2022/04/12 11:48:30;;;;;;;;;;;;;;;;;;5116178;28;19908;-48
2022/04/12 11:50:57;;;;;;;;;;;;;;;;;;5116486;28;19907;-51
2022/04/12 11:53:23;;;;;;;;;;;;;;;;;;5116290;28;19942;-48
2022/04/12 11:55:50;;;;;;;;;;;;;;;;;;5116305;28;19916;-56
2022/04/12 11:58:16;;;;;;;;;;;;;;;;;;5115874;28;20366;-50
2022/04/12 12:00:43;;;;;;;;;;;;;;;;;;5116223;28;19929;-50
2022/04/12 12:03:09;;;;;;;;;;;;;;;;;;5116652;28;19919;-50
2022/04/12 12:05:36;;;;;;;;;;;;;;;;;;5116174;28;19924;-54
2022/04/12 12:08:02;;;;;;;;;;;;;;;;;;5116107;28;19953;-56
2022/04/12 12:10:28;;;;;;;;;;;;;;;;;;5116007;28;20277;-56
2022/04/12 12:12:55;;;;;;;;;;;;;;;;;;5115904;28;19922;-56
2022/04/12 12:15:22;;;;;;;;;;;;;;;;;;5114609;28;19957;-57
2022/04/12 12:17:49;;;;;;;;;;;;;;;;;;5116025;28;19956;-55
2022/04/12 12:20:15;;;;;;;;;;;;;;;;;;5115887;28;19912;-53
2022/04/12 12:22:42;;;;;;;;;;;;;;;;;;5115850;28;19908;-54
2022/04/12 12:25:08;;;;;;;;;;;;;;;;;;5115903;28;19912;-52
2022/04/12 12:27:35;;;;;;;;;;;;;;;;;;5115704;27;20358;-48
2022/04/12 12:30:01;;;;;;;;;;;;;;;;;;5115003;28;20343;-46
2022/04/12 12:32:28;;;;;;;;;;;;;;;;;;5115654;28;20804;-46
2022/04/12 12:34:54;;;;;;;;;;;;;;;;;;5115690;28;20282;-49
2022/04/12 12:37:21;;;;;;;;;;;;;;;;;;5115695;28;20011;-51
2022/04/12 12:39:47;;;;;;;;;;;;;;;;;;5115855;28;19908;-49
2022/04/12 12:42:14;;;;;;;;;;;;;;;;;;5114999;28;19915;-47
2022/04/12 12:44:40;;;;;;;;;;;;;;;;;;5115467;28;20431;-53
2022/04/12 12:47:09;;;;;;;;;;;;;;;;;;5115543;28;19954;-43
2022/04/12 12:49:36;;;;;;;;;;;;;;;;;;5115417;28;20362;-49
2022/04/12 12:52:03;;;;;;;;;;;;;;;;;;5115513;28;19908;-55
2022/04/12 12:54:29;;;;;;;;;;;;;;;;;;5115250;28;19908;-49
2022/04/12 12:56:56;;;;;;;;;;;;;;;;;;5115054;28;19916;-52
2022/04/12 12:59:22;;;;;;;;;;;;;;;;;;5114936;28;19908;-56
2022/04/12 13:01:49;;;;;;;;;;;;;;;;;;5114905;28;19944;-53
2022/04/12 13:04:15;;;;;;;;;;;;;;;;;;5114619;28;19927;-55
2022/04/12 13:06:41;;;;;;;;;;;;;;;;;;5114886;28;19954;-52
2022/04/12 13:09:08;;;;;;;;;;;;;;;;;;5114839;28;19908;-51
2022/04/12 13:11:34;;;;;;;;;;;;;;;;;;5114599;28;19947;-51
2022/04/12 13:14:02;;;;;;;;;;;;;;;;;;5114926;28;19912;-41
2022/04/12 13:16:28;;;;;;;;;;;;;;;;;;5114472;28;19923;-42
2022/04/12 13:18:54;;;;;;;;;;;;;;;;;;5115193;28;19914;-45
2022/04/12 13:21:22;;;;;;;;;;;;;;;;;;5114736;28;19942;-39
2022/04/12 13:23:49;;;;;;;;;;;;;;;;;;5114651;28;19915;-42
2022/04/12 13:26:15;;;;;;;;;;;;;;;;;;5114267;28;19942;-41
2022/04/12 13:28:42;;;;;;;;;;;;;;;;;;5114260;28;19965;-51
2022/04/12 13:31:08;;;;;;;;;;;;;;;;;;5113078;28;19908;-41
2022/04/12 13:33:34;;;;;;;;;;;;;;;;;;5114643;28;19911;-56
2022/04/12 13:36:01;;;;;;;;;;;;;;;;;;5114852;28;19919;-54
2022/04/12 13:38:27;;;;;;;;;;;;;;;;;;5114265;28;19912;-54
2022/04/12 13:40:54;;;;;;;;;;;;;;;;;;5114387;28;19914;-58
2022/04/12 13:43:20;;;;;;;;;;;;;;;;;;5114297;28;19914;-48
2022/04/12 13:45:47;;;;;;;;;;;;;;;;;;5114334;28;19908;-47
2022/04/12 13:48:14;;;;;;;;;;;;;;;;;;5114055;28;19930;-44
2022/04/12 13:50:41;;;;;;;;;;;;;;;;;;5114665;28;19935;-43
2022/04/12 13:53:09;;;;;;;;;;;;;;;;;;5114248;28;19908;-47
2022/04/12 13:55:35;;;;;;;;;;;;;;;;;;5114008;28;19908;-51
2022/04/12 13:58:02;;;;;;;;;;;;;;;;;;5114367;28;19912;-48
2022/04/12 14:00:28;;;;;;;;;;;;;;;;;;5113894;28;19912;-46
2022/04/12 14:02:55;;;;;;;;;;;;;;;;;;5114024;28;19908;-52
2022/04/12 14:05:23;;;;;;;;;;;;;;;;;;5113879;28;20281;-46
2022/04/12 14:07:50;;;;;;;;;;;;;;;;;;5113826;28;20354;-49
2022/04/12 14:10:16;;;;;;;;;;;;;;;;;;5113570;28;19999;-53
2022/04/12 14:12:43;;;;;;;;;;;;;;;;;;5113742;28;20346;-48
2022/04/12 14:15:09;;;;;;;;;;;;;;;;;;5114062;28;19911;-46
2022/04/12 14:17:36;;;;;;;;;;;;;;;;;;5114037;28;20362;-50
2022/04/12 14:20:03;;;;;;;;;;;;;;;;;;5113825;28;19911;-53
2022/04/12 14:22:29;;;;;;;;;;;;;;;;;;5112266;28;19908;-49
2022/04/12 14:24:56;;;;;;;;;;;;;;;;;;5113753;28;19908;-53
2022/04/12 14:27:24;;;;;;;;;;;;;;;;;;5113664;28;20010;-52
2022/04/12 14:29:50;;;;;;;;;;;;;;;;;;5113644;28;20262;-45
2022/04/12 14:32:18;;;;;;;;;;;;;;;;;;5113535;28;19914;-51
2022/04/12 14:34:44;;;;;;;;;;;;;;;;;;5113699;28;19908;-47
2022/04/12 14:37:11;;;;;;;;;;;;;;;;;;5113639;28;19926;-50
2022/04/12 14:39:37;;;;;;;;;;;;;;;;;;5112552;28;19914;-49
2022/04/12 14:42:04;;;;;;;;;;;;;;;;;;5113449;28;20015;-52
2022/04/12 14:44:30;;;;;;;;;;;;;;;;;;5113695;28;20307;-48
2022/04/12 14:46:59;;;;;;;;;;;;;;;;;;5113600;28;20345;-49
2022/04/12 14:49:26;;;;;;;;;;;;;;;;;;5113436;28;20033;-54
2022/04/12 14:51:52;;;;;;;;;;;;;;;;;;5113251;28;19974;-50
2022/04/12 14:54:19;;;;;;;;;;;;;;;;;;5117087;28;20385;-54
2022/04/12 14:56:45;;;;;;;;;;;;;;;;;;5117313;28;20388;-55
2022/04/12 14:59:13;;;;;;;;;;;;;;;;;;5117883;28;19907;-56
2022/04/12 15:01:39;;;;;;;;;;;;;;;;;;5117798;28;20357;-55
2022/04/12 15:04:06;;;;;;;;;;;;;;;;;;5117378;28;20006;-47
2022/04/12 15:06:32;;;;;;;;;;;;;;;;;;5117337;28;19912;-48
2022/04/12 15:08:59;;;;;;;;;;;;;;;;;;5117319;28;19947;-49
2022/04/12 15:11:25;;;;;;;;;;;;;;;;;;5117313;28;19916;-52
2022/04/12 15:13:52;;;;;;;;;;;;;;;;;;5117499;28;19912;-51
2022/04/12 15:16:18;;;;;;;;;;;;;;;;;;5117322;28;19923;-53
2022/04/12 15:18:45;;;;;;;;;;;;;;;;;;5117094;28;19960;-55
2022/04/12 15:21:11;;;;;;;;;;;;;;;;;;5117331;28;19912;-49
2022/04/12 15:23:38;;;;;;;;;;;;;;;;;;5117136;27;19915;-42
2022/04/12 15:26:04;;;;;;;;;;;;;;;;;;5117073;28;20281;-50
2022/04/12 15:28:30;;;;;;;;;;;;;;;;;;5116936;28;20323;-51
2022/04/12 15:31:01;;;;;;;;;;;;;;;;;;5100646;28;20251;-51
2022/04/12 15:33:28;;;;;;;;;;;;;;;;;;5096519;28;20037;-45
2022/04/12 15:35:54;;;;;;;;;;;;;;;;;;5096341;28;19919;-57
2022/04/12 15:38:20;;;;;;;;;;;;;;;;;;5096210;28;19916;-53
2022/04/12 15:40:47;;;;;;;;;;;;;;;;;;5096401;28;20275;-51
2022/04/12 15:43:13;;;;;;;;;;;;;;;;;;5096255;28;20348;-49
2022/04/12 15:45:40;;;;;;;;;;;;;;;;;;5096311;28;19977;-52
2022/04/12 15:48:08;;;;;;;;;;;;;;;;;;5096578;28;19908;-49
2022/04/12 15:50:34;;;;;;;;;;;;;;;;;;5096518;28;19953;-54
2022/04/12 15:53:00;;;;;;;;;;;;;;;;;;5114560;28;19962;-55
2022/04/12 15:55:29;;;;;;;;;;;;;;;;;;5116410;28;19908;-51
2022/04/12 15:57:55;;;;;;;;;;;;;;;;;;5116586;28;19915;-56
2022/04/12 16:00:24;;;;;;;;;;;;;;;;;;5115452;28;19919;-53
2022/04/12 16:02:51;;;;;;;;;;;;;;;;;;5116545;28;19907;-53
2022/04/12 16:05:17;;;;;;;;;;;;;;;;;;5114990;28;19926;-57
2022/04/12 16:07:47;;;;;;;;;;;;;;;;;;5116372;28;19908;-50
2022/04/12 16:10:14;;;;;;;;;;;;;;;;;;5116041;28;19907;-55
2022/04/12 16:12:41;;;;;;;;;;;;;;;;;;5116247;28;19908;-54
2022/04/12 16:15:08;;;;;;;;;;;;;;;;;;5115763;28;19912;-55
2022/04/12 16:17:34;;;;;;;;;;;;;;;;;;5115907;28;20323;-51
2022/04/12 16:20:00;;;;;;;;;;;;;;;;;;5116130;28;19908;-54
2022/04/12 16:22:27;;;;;;;;;;;;;;;;;;5115848;28;19908;-51
2022/04/12 16:24:54;;;;;;;;;;;;;;;;;;5115822;28;19907;-48
2022/04/12 16:27:20;;;;;;;;;;;;;;;;;;5116191;28;19908;-56
2022/04/12 16:29:48;;;;;;;;;;;;;;;;;;5116343;28;19908;-47
2022/04/12 16:32:14;;;;;;;;;;;;;;;;;;5115928;28;19908;-47
2022/04/12 16:34:41;;;;;;;;;;;;;;;;;;5115767;28;19911;-42
2022/04/12 16:37:07;;;;;;;;;;;;;;;;;;5115290;28;19916;-54
2022/04/12 16:39:34;;;;;;;;;;;;;;;;;;5115881;28;19990;-52
2022/04/12 16:42:01;;;;;;;;;;;;;;;;;;5115707;28;19908;-52
2022/04/12 16:44:28;;;;;;;;;;;;;;;;;;5115711;28;19908;-52
2022/04/12 16:46:54;;;;;;;;;;;;;;;;;;5115634;28;20020;-55